Tropical Cyclones
[Index]
Main Index Home Page Stock Weather Photos Extreme Storms Discussion Storm News and Storm Chasing Reports Tropical Cyclones / Hurricanes / Typhoons Weather Data and Links Wild Fires / Bushfires Weather Observation Techniques Weather Picture Catalogue Tornado Pictures and Reports Stock Video Footage and DVDs for sale
Season 1974-1975 Tropical Cyclone WILMA Track Map
Season 1974-1975 Summaries: [BoM-AU] [JTWC-AU] [JTWC-SIO] [JTWC-SPAC] [JTWC-SH]
<<- Previous TC | BoM 1974-1975 Season | Next TC ->>

click for intensity scale information  Lat/long Grid: Show Hide

 Date Labels: Show Hide

Bureau of Meteorology Tropical Cyclone Data

Name: WILMA
Number: 540 / 197475_12

10 Mar 1975 18:00 UTC to 14 Mar 1975 12:00 UTC

    date/time    lat    long    hPa   cat  kts
1975-03-10 18   10.5   134.5    998                     
1975-03-10 21   10.5   134.0    995    1                
1975-03-11 00   10.5   133.5    995    1                
1975-03-11 03   10.5   133.3    995    1                
1975-03-11 06   10.5   133.0    995    1                
1975-03-11 09   10.5   132.7    995    1                
1975-03-11 12   10.5   132.5    990    1                
1975-03-11 15   10.5   132.3    990    1                
1975-03-11 18   10.5   132.0    985    2                
1975-03-11 21   10.6   131.8    985    2                
1975-03-12 00   10.7   131.5    985    2                
1975-03-12 03   10.8   131.3    985    2                
1975-03-12 06   10.8   131.0    985    2                
1975-03-12 09   10.9   130.8    985    2                
1975-03-12 12   11.0   130.5    990    1                
1975-03-12 15   11.1   130.3    990    1                
1975-03-12 18   11.3   130.0    990    1                
1975-03-12 21   11.5   129.7    990    1                
1975-03-13 00   11.8   129.6    990    1                
1975-03-13 03   12.1   129.5    990    1                
1975-03-13 06   12.2   129.2    990    1                
1975-03-13 09   12.4   129.0    990    1                
1975-03-13 12   12.6   128.8    990    1                
1975-03-13 15   13.0   128.6    990    1                
1975-03-13 18   13.3   128.5    985    2                
1975-03-13 21   13.4   128.4    985    2                
1975-03-14 00   13.7   128.2    985    2                
1975-03-14 03   14.0   128.1    985    2                
1975-03-14 06   14.6   128.1    980    2                
1975-03-14 09   14.8   128.0    980    2                
1975-03-14 12   15.2   128.0    980    2                
Winds are 10-min average.

Tropical cyclone tracks developed by Michael Bath using data from the Bureau of Meteorology and Google Maps.


[Australian Severe Weather index] [Copyright Notice] [Email Contacts] [Search This Site] [Privacy Policy]
Document: tropical_cyclone_wilma.htm Updated: 30 May 2013